Kine — C6WT4 — position and weather

sailwx.info

Track history (hours):
 
Tides and Currents Weather Stations Pressure Air Temp Water Temp Dewpoint Dewpoint Depression Visibility Wind Speed Wind Dir Waves Ship Positions

Kine

Last reported at 2015-Apr-27 20:18 UTC. Time now 2015-Apr-28 11:53 UTC.
Position N 50°35' E 000°17'.

Length 89 m; draft 4.5 m.

Type: Cargo ship. MMSI: 311117000.

Date/timePositionNaut miles runAvg speedWind from/ knotsBaromVisibWave heightAir tempDewpointWater temp
2015-Apr-27 20:18N 50°35' E 000°17'7 9.7
2015-Apr-27 19:33N 50°38' E 000°28'10 9.6
2015-Apr-27 18:33N 50°42' E 000°41'10 9.7
2015-Apr-27 17:33N 50°48' E 000°54'2310.3
2015-Apr-27 15:17N 51°02' E 001°23'912.6
2015-Apr-27 14:33N 51°08' E 001°34'1211.9
2015-Apr-27 13:33N 51°17' E 001°46'1211.3
2015-Apr-27 12:32N 51°28' E 001°54'1310.2
2015-Apr-27 11:14N 51°40' E 002°02'28 9.0
2015-Apr-27 08:05N 52°07' E 002°16'7910.5
2015-Apr-27 00:33N 53°24' E 002°47'346 9.1
2015-Apr-25 10:20N 59°05' E 004°36'9 8.1
2015-Apr-25 09:11N 59°14' E 004°39'  
2015-Apr-22 18:32N 59°12' E 004°54'8 8.6
2015-Apr-22 17:33N 59°06' E 005°05'8 8.4
2015-Apr-22 16:33N 58°59' E 005°15'8 8.0
2015-Apr-22 15:33N 58°52' E 005°24'7 7.1
2015-Apr-22 14:34N 58°58' E 005°33'7 6.9
2015-Apr-22 13:33N 59°01' E 005°45'4 3.9
2015-Apr-22 12:28N 58°57' E 005°45'0 0.0
2015-Apr-22 11:31N 58°57' E 005°45'0 0.0
2015-Apr-22 10:31N 58°57' E 005°45'0 0.0
2015-Apr-22 09:31N 58°57' E 005°45'0 0.0
2015-Apr-22 08:31N 58°57' E 005°45'0 0.0
2015-Apr-22 07:31N 58°57' E 005°45'0 0.0
2015-Apr-22 06:31N 58°57' E 005°45'0 0.0
2015-Apr-22 05:31N 58°57' E 005°45'0 0.0
2015-Apr-22 04:31N 58°57' E 005°45'0 0.0
2015-Apr-22 03:25N 58°57' E 005°45'0 0.0
2015-Apr-22 02:31N 58°57' E 005°45'0 0.0
2015-Apr-22 01:28N 58°57' E 005°45'0 0.0
2015-Apr-22 00:31N 58°57' E 005°45'0 0.0
2015-Apr-21 23:31N 58°57' E 005°45'0 0.0
2015-Apr-21 22:31N 58°57' E 005°45'0 0.0
2015-Apr-21 21:31N 58°57' E 005°45'0 0.0
2015-Apr-21 20:31N 58°57' E 005°45'0 0.0
2015-Apr-21 19:31N 58°57' E 005°45'0 0.0
2015-Apr-21 18:31N 58°57' E 005°45'0 0.0
2015-Apr-21 17:31N 58°57' E 005°45'0 0.0
2015-Apr-21 16:31N 58°57' E 005°45'0 0.0
2015-Apr-21 15:31N 58°57' E 005°45'0 0.0
2015-Apr-21 14:31N 58°57' E 005°45'0 0.0
2015-Apr-21 13:31N 58°57' E 005°45'0 0.0
2015-Apr-21 12:31N 58°57' E 005°45'0 0.0
2015-Apr-21 11:31N 58°57' E 005°45'0 0.0
2015-Apr-21 10:31N 58°57' E 005°45'0 0.0
2015-Apr-21 09:31N 58°57' E 005°45'0 0.0
2015-Apr-21 08:31N 58°57' E 005°45'0 0.0
2015-Apr-21 07:31N 58°57' E 005°45'0 0.0
2015-Apr-21 06:31N 58°57' E 005°45'0 0.0
2015-Apr-21 05:31N 58°57' E 005°45'0 0.0
2015-Apr-21 04:28N 58°57' E 005°45'0 0.0
2015-Apr-21 03:31N 58°57' E 005°45'0 0.0
2015-Apr-21 02:31N 58°57' E 005°45'0 0.0
2015-Apr-21 01:31N 58°57' E 005°45'0 0.0
2015-Apr-21 00:28N 58°57' E 005°45'0 0.0
2015-Apr-20 23:31N 58°57' E 005°45'0 0.0
2015-Apr-20 22:31N 58°57' E 005°45'0 0.0
2015-Apr-20 21:31N 58°57' E 005°45'0 0.0
2015-Apr-20 20:31N 58°57' E 005°45'0 0.0
2015-Apr-20 19:31N 58°57' E 005°45'0 0.0
2015-Apr-20 18:31N 58°57' E 005°45'0 0.2
2015-Apr-20 17:31N 58°57' E 005°45'0 0.0
2015-Apr-20 16:31N 58°57' E 005°45'0 0.0
2015-Apr-20 15:31N 58°57' E 005°45'0 0.0
2015-Apr-20 14:31N 58°57' E 005°45'0 0.0
2015-Apr-20 13:31N 58°57' E 005°45'0 0.0
2015-Apr-20 12:31N 58°57' E 005°45'0 0.0
2015-Apr-20 11:31N 58°57' E 005°45'0 0.0
2015-Apr-20 10:31N 58°57' E 005°45'0 0.0
2015-Apr-20 09:31N 58°57' E 005°45'0 0.0
2015-Apr-20 08:31N 58°57' E 005°45'0 0.0
2015-Apr-20 07:31N 58°57' E 005°45'0 0.0
2015-Apr-20 06:31N 58°57' E 005°45'0 0.0
2015-Apr-20 05:31N 58°57' E 005°45'0 0.0
2015-Apr-20 04:31N 58°57' E 005°45'0 0.0
2015-Apr-20 03:31N 58°57' E 005°45'0 0.0
2015-Apr-20 02:31N 58°57' E 005°45'0 0.0
2015-Apr-20 01:31N 58°57' E 005°45'0 0.0
2015-Apr-20 00:31N 58°57' E 005°45'0 0.0
2015-Apr-19 23:31N 58°57' E 005°45'0 0.0
2015-Apr-19 22:31N 58°57' E 005°45'0 0.0
2015-Apr-19 21:31N 58°57' E 005°45'0 0.1
2015-Apr-19 20:33N 58°57' E 005°45'5 5.4
2015-Apr-19 19:33N 59°01' E 005°39'6 6.2
2015-Apr-19 18:33N 58°56' E 005°33'9 9.2
2015-Apr-19 17:33N 58°47' E 005°27'20 8.9
2015-Apr-19 15:17N 58°29' E 005°43'6 8.9
2015-Apr-19 14:33N 58°24' E 005°52'149 9.3
2015-Apr-18 22:29N 57°50' E 010°26'9 9.7
2015-Apr-18 21:33N 57°49' E 010°43'10 9.6
2015-Apr-18 20:33N 57°43' E 010°57'9 9.4
2015-Apr-18 19:33N 57°37' E 011°10'9 9.3
2015-Apr-18 18:33N 57°30' E 011°23'9 9.4
2015-Apr-18 17:33N 57°22' E 011°32'10 9.6
2015-Apr-18 16:33N 57°13' E 011°39'18 9.0
2015-Apr-18 14:33N 56°57' E 011°52'9 9.0
2015-Apr-18 13:34N 56°48' E 011°58'9 9.2
2015-Apr-18 12:33N 56°40' E 012°05'9 9.1
2015-Apr-18 11:33N 56°32' E 012°11'9 9.0
2015-Apr-18 10:33N 56°23' E 012°18'10 9.7
2015-Apr-18 09:33N 56°15' E 012°26'10 9.7
2015-Apr-18 08:33N 56°06' E 012°34'10 9.9
2015-Apr-18 07:33N 55°58' E 012°43'10 9.8
2015-Apr-18 06:33N 55°48' E 012°43'1010.2
2015-Apr-18 05:33N 55°38' E 012°42'1010.1
2015-Apr-18 04:33N 55°27' E 012°42'9 9.1
2015-Apr-18 03:33N 55°18' E 012°43'9 9.2
2015-Apr-18 02:33N 55°16' E 012°59'9 9.4
2015-Apr-18 01:33N 55°16' E 013°16'  
Track history (hours):
 
Tides and Currents Weather Stations Pressure Air Temp Water Temp Dewpoint Dewpoint Depression Visibility Wind Speed Wind Dir Waves Ship Positions

Kine

Last reported at 2015-Apr-27 20:18 UTC. Time now 2015-Apr-28 11:53 UTC.
Position N 50°35' E 000°17'.

Length 89 m; draft 4.5 m.

Type: Cargo ship. MMSI: 311117000.

Date/timePositionNaut miles runAvg speedWind from/ knotsBaromVisibWave heightAir tempDewpointWater temp
2015-Apr-27 20:18N 50°35' E 000°17'7 9.7
2015-Apr-27 19:33N 50°38' E 000°28'10 9.6
2015-Apr-27 18:33N 50°42' E 000°41'10 9.7
2015-Apr-27 17:33N 50°48' E 000°54'2310.3
2015-Apr-27 15:17N 51°02' E 001°23'912.6
2015-Apr-27 14:33N 51°08' E 001°34'1211.9
2015-Apr-27 13:33N 51°17' E 001°46'1211.3
2015-Apr-27 12:32N 51°28' E 001°54'1310.2
2015-Apr-27 11:14N 51°40' E 002°02'28 9.0
2015-Apr-27 08:05N 52°07' E 002°16'7910.5
2015-Apr-27 00:33N 53°24' E 002°47'346 9.1
2015-Apr-25 10:20N 59°05' E 004°36'9 8.1
2015-Apr-25 09:11N 59°14' E 004°39'  
2015-Apr-22 18:32N 59°12' E 004°54'8 8.6
2015-Apr-22 17:33N 59°06' E 005°05'8 8.4
2015-Apr-22 16:33N 58°59' E 005°15'8 8.0
2015-Apr-22 15:33N 58°52' E 005°24'7 7.1
2015-Apr-22 14:34N 58°58' E 005°33'7 6.9
2015-Apr-22 13:33N 59°01' E 005°45'4 3.9
2015-Apr-22 12:28N 58°57' E 005°45'0 0.0
2015-Apr-22 11:31N 58°57' E 005°45'0 0.0
2015-Apr-22 10:31N 58°57' E 005°45'0 0.0
2015-Apr-22 09:31N 58°57' E 005°45'0 0.0
2015-Apr-22 08:31N 58°57' E 005°45'0 0.0
2015-Apr-22 07:31N 58°57' E 005°45'0 0.0
2015-Apr-22 06:31N 58°57' E 005°45'0 0.0
2015-Apr-22 05:31N 58°57' E 005°45'0 0.0
2015-Apr-22 04:31N 58°57' E 005°45'0 0.0
2015-Apr-22 03:25N 58°57' E 005°45'0 0.0
2015-Apr-22 02:31N 58°57' E 005°45'0 0.0
2015-Apr-22 01:28N 58°57' E 005°45'0 0.0
2015-Apr-22 00:31N 58°57' E 005°45'0 0.0
2015-Apr-21 23:31N 58°57' E 005°45'0 0.0
2015-Apr-21 22:31N 58°57' E 005°45'0 0.0
2015-Apr-21 21:31N 58°57' E 005°45'0 0.0
2015-Apr-21 20:31N 58°57' E 005°45'0 0.0
2015-Apr-21 19:31N 58°57' E 005°45'0 0.0
2015-Apr-21 18:31N 58°57' E 005°45'0 0.0
2015-Apr-21 17:31N 58°57' E 005°45'0 0.0
2015-Apr-21 16:31N 58°57' E 005°45'0 0.0
2015-Apr-21 15:31N 58°57' E 005°45'0 0.0
2015-Apr-21 14:31N 58°57' E 005°45'0 0.0
2015-Apr-21 13:31N 58°57' E 005°45'0 0.0
2015-Apr-21 12:31N 58°57' E 005°45'0 0.0
2015-Apr-21 11:31N 58°57' E 005°45'0 0.0
2015-Apr-21 10:31N 58°57' E 005°45'0 0.0
2015-Apr-21 09:31N 58°57' E 005°45'0 0.0
2015-Apr-21 08:31N 58°57' E 005°45'0 0.0
2015-Apr-21 07:31N 58°57' E 005°45'0 0.0
2015-Apr-21 06:31N 58°57' E 005°45'0 0.0
2015-Apr-21 05:31N 58°57' E 005°45'0 0.0
2015-Apr-21 04:28N 58°57' E 005°45'0 0.0
2015-Apr-21 03:31N 58°57' E 005°45'0 0.0
2015-Apr-21 02:31N 58°57' E 005°45'0 0.0
2015-Apr-21 01:31N 58°57' E 005°45'0 0.0
2015-Apr-21 00:28N 58°57' E 005°45'0 0.0
2015-Apr-20 23:31N 58°57' E 005°45'0 0.0
2015-Apr-20 22:31N 58°57' E 005°45'0 0.0
2015-Apr-20 21:31N 58°57' E 005°45'0 0.0
2015-Apr-20 20:31N 58°57' E 005°45'0 0.0
2015-Apr-20 19:31N 58°57' E 005°45'0 0.0
2015-Apr-20 18:31N 58°57' E 005°45'0 0.2
2015-Apr-20 17:31N 58°57' E 005°45'0 0.0
2015-Apr-20 16:31N 58°57' E 005°45'0 0.0
2015-Apr-20 15:31N 58°57' E 005°45'0 0.0
2015-Apr-20 14:31N 58°57' E 005°45'0 0.0
2015-Apr-20 13:31N 58°57' E 005°45'0 0.0
2015-Apr-20 12:31N 58°57' E 005°45'0 0.0
2015-Apr-20 11:31N 58°57' E 005°45'0 0.0
2015-Apr-20 10:31N 58°57' E 005°45'0 0.0
2015-Apr-20 09:31N 58°57' E 005°45'0 0.0
2015-Apr-20 08:31N 58°57' E 005°45'0 0.0
2015-Apr-20 07:31N 58°57' E 005°45'0 0.0
2015-Apr-20 06:31N 58°57' E 005°45'0 0.0
2015-Apr-20 05:31N 58°57' E 005°45'0 0.0
2015-Apr-20 04:31N 58°57' E 005°45'0 0.0
2015-Apr-20 03:31N 58°57' E 005°45'0 0.0
2015-Apr-20 02:31N 58°57' E 005°45'0 0.0
2015-Apr-20 01:31N 58°57' E 005°45'0 0.0
2015-Apr-20 00:31N 58°57' E 005°45'0 0.0
2015-Apr-19 23:31N 58°57' E 005°45'0 0.0
2015-Apr-19 22:31N 58°57' E 005°45'0 0.0
2015-Apr-19 21:31N 58°57' E 005°45'0 0.1
2015-Apr-19 20:33N 58°57' E 005°45'5 5.4
2015-Apr-19 19:33N 59°01' E 005°39'6 6.2
2015-Apr-19 18:33N 58°56' E 005°33'9 9.2
2015-Apr-19 17:33N 58°47' E 005°27'20 8.9
2015-Apr-19 15:17N 58°29' E 005°43'6 8.9
2015-Apr-19 14:33N 58°24' E 005°52'149 9.3
2015-Apr-18 22:29N 57°50' E 010°26'9 9.7
2015-Apr-18 21:33N 57°49' E 010°43'10 9.6
2015-Apr-18 20:33N 57°43' E 010°57'9 9.4
2015-Apr-18 19:33N 57°37' E 011°10'9 9.3
2015-Apr-18 18:33N 57°30' E 011°23'9 9.4
2015-Apr-18 17:33N 57°22' E 011°32'10 9.6
2015-Apr-18 16:33N 57°13' E 011°39'18 9.0
2015-Apr-18 14:33N 56°57' E 011°52'9 9.0
2015-Apr-18 13:34N 56°48' E 011°58'9 9.2
2015-Apr-18 12:33N 56°40' E 012°05'9 9.1
2015-Apr-18 11:33N 56°32' E 012°11'9 9.0
2015-Apr-18 10:33N 56°23' E 012°18'10 9.7
2015-Apr-18 09:33N 56°15' E 012°26'10 9.7
2015-Apr-18 08:33N 56°06' E 012°34'10 9.9
2015-Apr-18 07:33N 55°58' E 012°43'10 9.8
2015-Apr-18 06:33N 55°48' E 012°43'1010.2
2015-Apr-18 05:33N 55°38' E 012°42'1010.1
2015-Apr-18 04:33N 55°27' E 012°42'9 9.1
2015-Apr-18 03:33N 55°18' E 012°43'9 9.2
2015-Apr-18 02:33N 55°16' E 012°59'9 9.4
2015-Apr-18 01:33N 55°16' E 013°16'  

Dump ship's entire track history